sensor_id;sensor_type;location;lat;lon;timestamp;P1;durP1;ratioP1;P2;durP2;ratioP2
44276;SDS011;29973;43.742;1.236;2024-03-02T00:00:42;6.82;;;3.25;;
44276;SDS011;29973;43.742;1.236;2024-03-02T00:03:07;5.03;;;3.80;;
44276;SDS011;29973;43.742;1.236;2024-03-02T00:05:36;6.70;;;4.28;;
44276;SDS011;29973;43.742;1.236;2024-03-02T00:08:01;10.50;;;4.43;;
44276;SDS011;29973;43.742;1.236;2024-03-02T00:10:37;6.82;;;4.35;;
44276;SDS011;29973;43.742;1.236;2024-03-02T00:13:05;8.32;;;4.30;;
44276;SDS011;29973;43.742;1.236;2024-03-02T00:15:47;6.32;;;4.35;;
44276;SDS011;29973;43.742;1.236;2024-03-02T00:18:18;4.70;;;3.97;;
44276;SDS011;29973;43.742;1.236;2024-03-02T00:20:45;4.65;;;4.20;;
44276;SDS011;29973;43.742;1.236;2024-03-02T00:23:13;6.00;;;4.53;;
44276;SDS011;29973;43.742;1.236;2024-03-02T00:25:44;7.30;;;4.95;;
44276;SDS011;29973;43.742;1.236;2024-03-02T00:28:27;8.73;;;5.00;;
44276;SDS011;29973;43.742;1.236;2024-03-02T00:36:01;6.63;;;4.10;;
44276;SDS011;29973;43.742;1.236;2024-03-02T00:38:28;7.35;;;5.30;;
44276;SDS011;29973;43.742;1.236;2024-03-02T00:40:55;14.73;;;7.78;;
44276;SDS011;29973;43.742;1.236;2024-03-02T00:46:19;9.25;;;4.68;;
44276;SDS011;29973;43.742;1.236;2024-03-02T00:48:51;12.15;;;6.95;;
44276;SDS011;29973;43.742;1.236;2024-03-02T00:51:20;10.43;;;5.70;;
44276;SDS011;29973;43.742;1.236;2024-03-02T00:53:46;9.85;;;7.35;;
44276;SDS011;29973;43.742;1.236;2024-03-02T00:56:12;10.40;;;4.40;;
44276;SDS011;29973;43.742;1.236;2024-03-02T00:58:39;9.05;;;3.80;;
44276;SDS011;29973;43.742;1.236;2024-03-02T01:01:05;8.38;;;3.97;;
44276;SDS011;29973;43.742;1.236;2024-03-02T01:03:32;6.80;;;4.32;;
44276;SDS011;29973;43.742;1.236;2024-03-02T01:05:58;6.35;;;3.63;;
44276;SDS011;29973;43.742;1.236;2024-03-02T01:08:24;8.60;;;3.10;;
44276;SDS011;29973;43.742;1.236;2024-03-02T01:10:51;5.60;;;3.80;;
44276;SDS011;29973;43.742;1.236;2024-03-02T01:13:16;8.27;;;4.22;;
44276;SDS011;29973;43.742;1.236;2024-03-02T01:15:42;8.32;;;4.00;;
44276;SDS011;29973;43.742;1.236;2024-03-02T01:18:08;5.95;;;3.53;;
44276;SDS011;29973;43.742;1.236;2024-03-02T01:20:34;6.15;;;2.90;;
44276;SDS011;29973;43.742;1.236;2024-03-02T01:23:00;5.53;;;3.28;;
44276;SDS011;29973;43.742;1.236;2024-03-02T01:25:26;10.13;;;4.80;;
44276;SDS011;29973;43.742;1.236;2024-03-02T01:27:51;9.30;;;4.32;;
44276;SDS011;29973;43.742;1.236;2024-03-02T01:30:17;11.35;;;4.60;;
44276;SDS011;29973;43.742;1.236;2024-03-02T01:32:43;14.27;;;5.25;;
44276;SDS011;29973;43.742;1.236;2024-03-02T01:35:09;8.63;;;3.78;;
44276;SDS011;29973;43.742;1.236;2024-03-02T01:37:34;7.68;;;3.53;;
44276;SDS011;29973;43.742;1.236;2024-03-02T01:40:00;6.45;;;2.78;;
44276;SDS011;29973;43.742;1.236;2024-03-02T01:42:27;5.55;;;2.70;;
44276;SDS011;29973;43.742;1.236;2024-03-02T01:44:53;7.32;;;2.85;;
44276;SDS011;29973;43.742;1.236;2024-03-02T01:47:18;10.05;;;2.97;;
44276;SDS011;29973;43.742;1.236;2024-03-02T01:49:44;5.72;;;2.58;;
44276;SDS011;29973;43.742;1.236;2024-03-02T01:52:10;5.03;;;2.67;;
44276;SDS011;29973;43.742;1.236;2024-03-02T01:54:36;3.22;;;2.13;;
44276;SDS011;29973;43.742;1.236;2024-03-02T01:57:02;14.43;;;3.50;;
44276;SDS011;29973;43.742;1.236;2024-03-02T01:59:28;4.80;;;2.90;;
44276;SDS011;29973;43.742;1.236;2024-03-02T02:01:54;5.18;;;2.67;;
44276;SDS011;29973;43.742;1.236;2024-03-02T02:04:20;5.40;;;2.75;;
44276;SDS011;29973;43.742;1.236;2024-03-02T02:06:52;7.45;;;2.33;;
44276;SDS011;29973;43.742;1.236;2024-03-02T02:09:17;8.25;;;2.88;;
44276;SDS011;29973;43.742;1.236;2024-03-02T02:11:43;6.50;;;2.80;;
44276;SDS011;29973;43.742;1.236;2024-03-02T02:14:09;6.57;;;2.67;;
44276;SDS011;29973;43.742;1.236;2024-03-02T02:16:35;3.50;;;2.55;;
44276;SDS011;29973;43.742;1.236;2024-03-02T02:19:00;8.32;;;2.90;;
44276;SDS011;29973;43.742;1.236;2024-03-02T02:21:26;7.85;;;3.25;;
44276;SDS011;29973;43.742;1.236;2024-03-02T02:23:52;8.18;;;4.50;;
44276;SDS011;29973;43.742;1.236;2024-03-02T02:26:18;6.93;;;4.10;;
44276;SDS011;29973;43.742;1.236;2024-03-02T02:28:43;8.65;;;4.07;;
44276;SDS011;29973;43.742;1.236;2024-03-02T02:31:12;9.00;;;4.35;;
44276;SDS011;29973;43.742;1.236;2024-03-02T02:33:42;8.25;;;3.67;;
44276;SDS011;29973;43.742;1.236;2024-03-02T02:36:08;6.07;;;3.60;;
44276;SDS011;29973;43.742;1.236;2024-03-02T02:38:36;7.07;;;4.32;;
44276;SDS011;29973;43.742;1.236;2024-03-02T02:41:05;10.02;;;4.63;;
44276;SDS011;29973;43.742;1.236;2024-03-02T02:43:31;5.53;;;3.83;;
44276;SDS011;29973;43.742;1.236;2024-03-02T02:45:56;9.30;;;3.95;;
44276;SDS011;29973;43.742;1.236;2024-03-02T02:48:22;8.55;;;3.60;;
44276;SDS011;29973;43.742;1.236;2024-03-02T02:50:47;5.82;;;2.90;;
44276;SDS011;29973;43.742;1.236;2024-03-02T02:53:13;10.30;;;3.83;;
44276;SDS011;29973;43.742;1.236;2024-03-02T02:55:39;8.10;;;2.88;;
44276;SDS011;29973;43.742;1.236;2024-03-02T02:58:11;7.72;;;2.45;;
44276;SDS011;29973;43.742;1.236;2024-03-02T03:00:37;7.03;;;2.42;;
44276;SDS011;29973;43.742;1.236;2024-03-02T03:03:03;7.50;;;2.67;;
44276;SDS011;29973;43.742;1.236;2024-03-02T03:05:30;6.20;;;2.80;;
44276;SDS011;29973;43.742;1.236;2024-03-02T03:07:56;4.45;;;2.78;;
44276;SDS011;29973;43.742;1.236;2024-03-02T03:10:21;3.85;;;2.53;;
44276;SDS011;29973;43.742;1.236;2024-03-02T03:12:48;5.93;;;2.83;;
44276;SDS011;29973;43.742;1.236;2024-03-02T03:15:14;6.00;;;2.78;;
44276;SDS011;29973;43.742;1.236;2024-03-02T03:17:41;5.72;;;3.72;;
44276;SDS011;29973;43.742;1.236;2024-03-02T03:20:07;9.40;;;2.65;;
44276;SDS011;29973;43.742;1.236;2024-03-02T03:22:36;4.20;;;2.70;;
44276;SDS011;29973;43.742;1.236;2024-03-02T03:25:03;5.93;;;3.40;;
44276;SDS011;29973;43.742;1.236;2024-03-02T03:27:28;6.40;;;3.45;;
44276;SDS011;29973;43.742;1.236;2024-03-02T03:29:54;6.68;;;4.22;;
44276;SDS011;29973;43.742;1.236;2024-03-02T03:32:20;5.82;;;4.10;;
44276;SDS011;29973;43.742;1.236;2024-03-02T03:34:46;12.75;;;6.75;;
44276;SDS011;29973;43.742;1.236;2024-03-02T03:37:13;8.82;;;5.43;;
44276;SDS011;29973;43.742;1.236;2024-03-02T03:39:39;7.47;;;5.40;;
44276;SDS011;29973;43.742;1.236;2024-03-02T03:42:05;8.00;;;5.45;;
44276;SDS011;29973;43.742;1.236;2024-03-02T03:44:31;4.60;;;4.00;;
44276;SDS011;29973;43.742;1.236;2024-03-02T03:46:57;5.63;;;4.07;;
44276;SDS011;29973;43.742;1.236;2024-03-02T03:49:22;6.43;;;4.78;;
44276;SDS011;29973;43.742;1.236;2024-03-02T03:51:48;5.20;;;3.78;;
44276;SDS011;29973;43.742;1.236;2024-03-02T03:54:14;8.18;;;4.55;;
44276;SDS011;29973;43.742;1.236;2024-03-02T03:56:40;12.10;;;5.53;;
44276;SDS011;29973;43.742;1.236;2024-03-02T03:59:05;12.80;;;5.93;;
44276;SDS011;29973;43.742;1.236;2024-03-02T04:01:31;6.82;;;4.90;;
44276;SDS011;29973;43.742;1.236;2024-03-02T04:03:57;7.68;;;5.20;;
44276;SDS011;29973;43.742;1.236;2024-03-02T04:06:23;7.68;;;4.63;;
44276;SDS011;29973;43.742;1.236;2024-03-02T04:08:49;10.23;;;4.82;;
44276;SDS011;29973;43.742;1.236;2024-03-02T04:11:14;7.75;;;4.60;;
44276;SDS011;29973;43.742;1.236;2024-03-02T04:13:40;14.10;;;5.20;;
44276;SDS011;29973;43.742;1.236;2024-03-02T04:16:06;5.70;;;4.00;;
44276;SDS011;29973;43.742;1.236;2024-03-02T04:18:31;8.10;;;3.85;;
44276;SDS011;29973;43.742;1.236;2024-03-02T04:20:57;8.70;;;4.13;;
44276;SDS011;29973;43.742;1.236;2024-03-02T04:23:26;8.10;;;5.32;;
44276;SDS011;29973;43.742;1.236;2024-03-02T04:25:52;11.00;;;6.00;;
44276;SDS011;29973;43.742;1.236;2024-03-02T04:28:18;12.02;;;6.93;;
44276;SDS011;29973;43.742;1.236;2024-03-02T04:30:43;5.88;;;5.38;;
44276;SDS011;29973;43.742;1.236;2024-03-02T04:33:09;7.88;;;5.40;;
44276;SDS011;29973;43.742;1.236;2024-03-02T04:35:35;8.35;;;4.30;;
44276;SDS011;29973;43.742;1.236;2024-03-02T04:38:02;6.35;;;4.15;;
44276;SDS011;29973;43.742;1.236;2024-03-02T04:40:28;8.90;;;3.42;;
44276;SDS011;29973;43.742;1.236;2024-03-02T04:42:53;7.05;;;3.17;;
44276;SDS011;29973;43.742;1.236;2024-03-02T04:45:19;6.72;;;3.33;;
44276;SDS011;29973;43.742;1.236;2024-03-02T04:47:45;4.18;;;2.78;;
44276;SDS011;29973;43.742;1.236;2024-03-02T04:50:11;4.03;;;2.50;;
44276;SDS011;29973;43.742;1.236;2024-03-02T04:52:36;6.70;;;2.90;;
44276;SDS011;29973;43.742;1.236;2024-03-02T04:55:02;8.05;;;3.00;;
44276;SDS011;29973;43.742;1.236;2024-03-02T04:57:34;3.80;;;2.33;;
44276;SDS011;29973;43.742;1.236;2024-03-02T05:00:00;4.20;;;2.55;;
44276;SDS011;29973;43.742;1.236;2024-03-02T05:02:26;6.80;;;3.15;;
44276;SDS011;29973;43.742;1.236;2024-03-02T05:04:52;4.63;;;2.60;;
44276;SDS011;29973;43.742;1.236;2024-03-02T05:07:17;9.95;;;3.03;;
44276;SDS011;29973;43.742;1.236;2024-03-02T05:09:43;5.90;;;2.38;;
44276;SDS011;29973;43.742;1.236;2024-03-02T05:12:09;6.55;;;3.03;;
44276;SDS011;29973;43.742;1.236;2024-03-02T05:14:45;5.20;;;2.40;;
44276;SDS011;29973;43.742;1.236;2024-03-02T05:17:11;7.15;;;2.63;;
44276;SDS011;29973;43.742;1.236;2024-03-02T05:19:36;5.50;;;2.63;;
44276;SDS011;29973;43.742;1.236;2024-03-02T05:22:03;10.38;;;3.25;;
44276;SDS011;29973;43.742;1.236;2024-03-02T05:24:30;9.23;;;3.28;;
44276;SDS011;29973;43.742;1.236;2024-03-02T05:26:56;6.28;;;2.85;;
44276;SDS011;29973;43.742;1.236;2024-03-02T05:29:22;6.68;;;3.35;;
44276;SDS011;29973;43.742;1.236;2024-03-02T05:31:48;5.07;;;3.65;;
44276;SDS011;29973;43.742;1.236;2024-03-02T05:34:14;9.00;;;3.42;;
44276;SDS011;29973;43.742;1.236;2024-03-02T05:36:39;9.32;;;3.88;;
44276;SDS011;29973;43.742;1.236;2024-03-02T05:39:05;8.55;;;4.22;;
44276;SDS011;29973;43.742;1.236;2024-03-02T05:41:34;5.95;;;4.00;;
44276;SDS011;29973;43.742;1.236;2024-03-02T05:44:00;8.63;;;4.43;;
44276;SDS011;29973;43.742;1.236;2024-03-02T05:46:26;10.18;;;4.97;;
44276;SDS011;29973;43.742;1.236;2024-03-02T05:48:52;10.10;;;4.35;;
44276;SDS011;29973;43.742;1.236;2024-03-02T05:51:18;9.18;;;5.07;;
44276;SDS011;29973;43.742;1.236;2024-03-02T05:53:44;8.48;;;5.15;;
44276;SDS011;29973;43.742;1.236;2024-03-02T05:56:10;11.73;;;6.20;;
44276;SDS011;29973;43.742;1.236;2024-03-02T05:58:37;15.45;;;6.78;;
44276;SDS011;29973;43.742;1.236;2024-03-02T06:01:32;11.25;;;7.40;;
44276;SDS011;29973;43.742;1.236;2024-03-02T06:03:58;12.15;;;7.93;;
44276;SDS011;29973;43.742;1.236;2024-03-02T06:06:24;20.83;;;10.52;;
44276;SDS011;29973;43.742;1.236;2024-03-02T06:08:50;15.23;;;9.10;;
44276;SDS011;29973;43.742;1.236;2024-03-02T06:11:17;16.95;;;9.48;;
44276;SDS011;29973;43.742;1.236;2024-03-02T06:13:44;16.45;;;10.95;;
44276;SDS011;29973;43.742;1.236;2024-03-02T06:16:10;19.35;;;11.95;;
44276;SDS011;29973;43.742;1.236;2024-03-02T06:18:36;20.55;;;11.88;;
44276;SDS011;29973;43.742;1.236;2024-03-02T06:21:01;21.80;;;11.25;;
44276;SDS011;29973;43.742;1.236;2024-03-02T06:23:27;19.50;;;11.75;;
44276;SDS011;29973;43.742;1.236;2024-03-02T06:25:53;18.88;;;11.30;;
44276;SDS011;29973;43.742;1.236;2024-03-02T06:28:19;30.33;;;15.57;;
44276;SDS011;29973;43.742;1.236;2024-03-02T06:30:45;19.42;;;11.90;;
44276;SDS011;29973;43.742;1.236;2024-03-02T06:33:11;19.83;;;11.30;;
44276;SDS011;29973;43.742;1.236;2024-03-02T06:35:37;20.48;;;11.85;;
44276;SDS011;29973;43.742;1.236;2024-03-02T06:38:04;23.40;;;12.20;;
44276;SDS011;29973;43.742;1.236;2024-03-02T06:40:29;18.20;;;11.10;;
44276;SDS011;29973;43.742;1.236;2024-03-02T06:42:55;21.48;;;11.65;;
44276;SDS011;29973;43.742;1.236;2024-03-02T06:45:22;20.80;;;12.23;;
44276;SDS011;29973;43.742;1.236;2024-03-02T06:47:48;20.30;;;11.60;;
44276;SDS011;29973;43.742;1.236;2024-03-02T06:50:14;15.90;;;9.85;;
44276;SDS011;29973;43.742;1.236;2024-03-02T06:52:40;13.98;;;9.25;;
44276;SDS011;29973;43.742;1.236;2024-03-02T06:55:05;19.20;;;8.73;;
44276;SDS011;29973;43.742;1.236;2024-03-02T06:57:31;11.50;;;7.40;;
44276;SDS011;29973;43.742;1.236;2024-03-02T06:59:58;12.88;;;6.88;;
44276;SDS011;29973;43.742;1.236;2024-03-02T07:02:27;11.52;;;6.97;;
44276;SDS011;29973;43.742;1.236;2024-03-02T07:04:53;11.77;;;7.45;;
44276;SDS011;29973;43.742;1.236;2024-03-02T07:07:19;10.32;;;7.20;;
44276;SDS011;29973;43.742;1.236;2024-03-02T07:09:45;13.60;;;5.75;;
44276;SDS011;29973;43.742;1.236;2024-03-02T07:12:11;9.52;;;5.70;;
44276;SDS011;29973;43.742;1.236;2024-03-02T07:14:36;8.65;;;5.82;;
44276;SDS011;29973;43.742;1.236;2024-03-02T07:17:36;9.90;;;5.97;;
44276;SDS011;29973;43.742;1.236;2024-03-02T07:20:02;7.80;;;4.75;;
44276;SDS011;29973;43.742;1.236;2024-03-02T07:22:31;10.20;;;5.55;;
44276;SDS011;29973;43.742;1.236;2024-03-02T07:24:58;8.00;;;6.20;;
44276;SDS011;29973;43.742;1.236;2024-03-02T07:27:23;11.52;;;6.60;;
44276;SDS011;29973;43.742;1.236;2024-03-02T07:29:49;10.18;;;6.45;;
44276;SDS011;29973;43.742;1.236;2024-03-02T07:32:15;12.90;;;6.72;;
44276;SDS011;29973;43.742;1.236;2024-03-02T07:34:40;11.18;;;6.65;;
44276;SDS011;29973;43.742;1.236;2024-03-02T07:37:06;12.35;;;6.63;;
44276;SDS011;29973;43.742;1.236;2024-03-02T07:39:32;9.48;;;6.97;;
44276;SDS011;29973;43.742;1.236;2024-03-02T07:41:57;12.05;;;6.82;;
44276;SDS011;29973;43.742;1.236;2024-03-02T07:44:24;10.98;;;6.53;;
44276;SDS011;29973;43.742;1.236;2024-03-02T07:46:50;8.75;;;6.05;;
44276;SDS011;29973;43.742;1.236;2024-03-02T07:49:16;10.05;;;6.78;;
44276;SDS011;29973;43.742;1.236;2024-03-02T07:51:42;12.70;;;6.65;;
44276;SDS011;29973;43.742;1.236;2024-03-02T07:54:08;9.98;;;6.07;;
44276;SDS011;29973;43.742;1.236;2024-03-02T07:56:34;12.10;;;5.78;;
44276;SDS011;29973;43.742;1.236;2024-03-02T07:59:03;8.82;;;5.80;;
44276;SDS011;29973;43.742;1.236;2024-03-02T08:01:30;11.63;;;6.00;;
44276;SDS011;29973;43.742;1.236;2024-03-02T08:03:57;7.50;;;5.35;;
44276;SDS011;29973;43.742;1.236;2024-03-02T08:06:24;11.10;;;5.15;;
44276;SDS011;29973;43.742;1.236;2024-03-02T08:08:52;6.55;;;4.25;;
44276;SDS011;29973;43.742;1.236;2024-03-02T08:11:19;8.65;;;5.10;;
44276;SDS011;29973;43.742;1.236;2024-03-02T08:13:45;9.15;;;3.97;;
44276;SDS011;29973;43.742;1.236;2024-03-02T08:16:11;8.00;;;4.18;;
44276;SDS011;29973;43.742;1.236;2024-03-02T08:18:37;11.00;;;4.47;;
44276;SDS011;29973;43.742;1.236;2024-03-02T08:21:03;9.57;;;4.40;;
44276;SDS011;29973;43.742;1.236;2024-03-02T08:23:29;13.80;;;4.68;;
44276;SDS011;29973;43.742;1.236;2024-03-02T08:25:55;5.72;;;3.80;;
44276;SDS011;29973;43.742;1.236;2024-03-02T08:28:21;7.13;;;3.90;;
44276;SDS011;29973;43.742;1.236;2024-03-02T08:30:46;5.25;;;4.05;;
44276;SDS011;29973;43.742;1.236;2024-03-02T08:33:12;6.07;;;3.47;;
44276;SDS011;29973;43.742;1.236;2024-03-02T08:35:38;6.28;;;3.78;;
44276;SDS011;29973;43.742;1.236;2024-03-02T08:38:03;3.85;;;3.10;;
44276;SDS011;29973;43.742;1.236;2024-03-02T08:40:29;4.95;;;3.88;;
44276;SDS011;29973;43.742;1.236;2024-03-02T08:42:56;6.95;;;3.35;;
44276;SDS011;29973;43.742;1.236;2024-03-02T08:45:23;9.15;;;3.60;;
44276;SDS011;29973;43.742;1.236;2024-03-02T08:47:48;4.80;;;2.92;;
44276;SDS011;29973;43.742;1.236;2024-03-02T08:50:14;6.43;;;3.67;;
44276;SDS011;29973;43.742;1.236;2024-03-02T08:52:40;7.15;;;3.92;;
44276;SDS011;29973;43.742;1.236;2024-03-02T08:55:06;6.82;;;3.83;;
44276;SDS011;29973;43.742;1.236;2024-03-02T08:57:32;9.35;;;4.35;;
44276;SDS011;29973;43.742;1.236;2024-03-02T08:59:58;8.52;;;3.85;;
44276;SDS011;29973;43.742;1.236;2024-03-02T09:02:25;6.25;;;4.35;;
44276;SDS011;29973;43.742;1.236;2024-03-02T09:04:51;7.43;;;4.05;;
44276;SDS011;29973;43.742;1.236;2024-03-02T09:07:16;6.03;;;3.60;;
44276;SDS011;29973;43.742;1.236;2024-03-02T09:09:42;6.70;;;3.83;;
44276;SDS011;29973;43.742;1.236;2024-03-02T09:12:08;8.88;;;3.90;;
44276;SDS011;29973;43.742;1.236;2024-03-02T09:14:34;8.10;;;3.47;;
44276;SDS011;29973;43.742;1.236;2024-03-02T09:17:02;7.28;;;4.18;;
44276;SDS011;29973;43.742;1.236;2024-03-02T09:19:28;6.50;;;4.03;;
44276;SDS011;29973;43.742;1.236;2024-03-02T09:21:54;7.75;;;4.22;;
44276;SDS011;29973;43.742;1.236;2024-03-02T09:24:21;8.93;;;4.35;;
44276;SDS011;29973;43.742;1.236;2024-03-02T09:26:46;12.93;;;4.10;;
44276;SDS011;29973;43.742;1.236;2024-03-02T09:29:12;11.57;;;3.67;;
44276;SDS011;29973;43.742;1.236;2024-03-02T09:31:41;8.70;;;3.40;;
44276;SDS011;29973;43.742;1.236;2024-03-02T09:34:08;9.85;;;3.63;;
44276;SDS011;29973;43.742;1.236;2024-03-02T09:36:34;8.43;;;3.55;;
44276;SDS011;29973;43.742;1.236;2024-03-02T09:38:59;8.80;;;3.70;;
44276;SDS011;29973;43.742;1.236;2024-03-02T09:41:25;10.00;;;4.72;;
44276;SDS011;29973;43.742;1.236;2024-03-02T09:43:51;7.53;;;4.32;;
44276;SDS011;29973;43.742;1.236;2024-03-02T09:46:17;15.05;;;5.35;;
44276;SDS011;29973;43.742;1.236;2024-03-02T09:48:44;11.02;;;4.97;;
44276;SDS011;29973;43.742;1.236;2024-03-02T09:51:10;11.07;;;5.60;;
44276;SDS011;29973;43.742;1.236;2024-03-02T09:53:36;10.88;;;4.85;;
44276;SDS011;29973;43.742;1.236;2024-03-02T09:56:02;13.18;;;4.43;;
44276;SDS011;29973;43.742;1.236;2024-03-02T09:58:29;14.80;;;4.32;;
44276;SDS011;29973;43.742;1.236;2024-03-02T10:00:55;14.60;;;4.63;;
44276;SDS011;29973;43.742;1.236;2024-03-02T10:03:22;14.93;;;5.10;;
44276;SDS011;29973;43.742;1.236;2024-03-02T10:05:51;13.98;;;4.65;;
44276;SDS011;29973;43.742;1.236;2024-03-02T10:08:17;13.77;;;4.13;;
44276;SDS011;29973;43.742;1.236;2024-03-02T10:10:43;10.65;;;3.97;;
44276;SDS011;29973;43.742;1.236;2024-03-02T10:13:10;9.73;;;4.40;;
44276;SDS011;29973;43.742;1.236;2024-03-02T10:15:37;13.30;;;4.85;;
44276;SDS011;29973;43.742;1.236;2024-03-02T10:18:10;6.85;;;4.18;;
44276;SDS011;29973;43.742;1.236;2024-03-02T10:20:37;10.00;;;4.45;;
44276;SDS011;29973;43.742;1.236;2024-03-02T10:23:09;8.70;;;4.00;;
44276;SDS011;29973;43.742;1.236;2024-03-02T10:25:39;17.80;;;5.13;;
44276;SDS011;29973;43.742;1.236;2024-03-02T10:28:05;12.32;;;4.53;;
44276;SDS011;29973;43.742;1.236;2024-03-02T10:30:32;7.82;;;3.97;;
44276;SDS011;29973;43.742;1.236;2024-03-02T10:32:58;13.93;;;4.50;;
44276;SDS011;29973;43.742;1.236;2024-03-02T10:35:24;11.57;;;4.32;;
44276;SDS011;29973;43.742;1.236;2024-03-02T10:37:54;8.90;;;4.45;;
44276;SDS011;29973;43.742;1.236;2024-03-02T10:40:23;9.80;;;4.80;;
44276;SDS011;29973;43.742;1.236;2024-03-02T10:42:49;16.25;;;5.35;;
44276;SDS011;29973;43.742;1.236;2024-03-02T10:45:19;16.27;;;4.82;;
44276;SDS011;29973;43.742;1.236;2024-03-02T10:47:47;16.33;;;4.82;;
44276;SDS011;29973;43.742;1.236;2024-03-02T10:50:14;15.75;;;5.63;;
44276;SDS011;29973;43.742;1.236;2024-03-02T10:52:40;8.13;;;5.28;;
44276;SDS011;29973;43.742;1.236;2024-03-02T10:55:06;7.72;;;4.38;;
44276;SDS011;29973;43.742;1.236;2024-03-02T11:00:19;13.68;;;5.10;;
44276;SDS011;29973;43.742;1.236;2024-03-02T11:03:11;12.77;;;5.55;;
44276;SDS011;29973;43.742;1.236;2024-03-02T11:05:36;8.77;;;4.18;;
44276;SDS011;29973;43.742;1.236;2024-03-02T11:08:07;10.95;;;4.28;;
44276;SDS011;29973;43.742;1.236;2024-03-02T11:10:38;9.75;;;4.93;;
44276;SDS011;29973;43.742;1.236;2024-03-02T11:13:09;15.40;;;4.43;;
44276;SDS011;29973;43.742;1.236;2024-03-02T11:15:40;15.57;;;5.82;;
44276;SDS011;29973;43.742;1.236;2024-03-02T11:18:08;12.57;;;4.90;;
44276;SDS011;29973;43.742;1.236;2024-03-02T11:20:39;16.52;;;4.75;;
44276;SDS011;29973;43.742;1.236;2024-03-02T11:23:06;11.95;;;5.03;;
44276;SDS011;29973;43.742;1.236;2024-03-02T11:25:35;11.07;;;4.53;;
44276;SDS011;29973;43.742;1.236;2024-03-02T11:28:03;11.90;;;4.65;;
44276;SDS011;29973;43.742;1.236;2024-03-02T11:32:58;14.98;;;4.07;;
44276;SDS011;29973;43.742;1.236;2024-03-02T11:35:32;11.07;;;4.40;;
44276;SDS011;29973;43.742;1.236;2024-03-02T11:37:58;31.92;;;5.40;;
44276;SDS011;29973;43.742;1.236;2024-03-02T11:40:24;11.07;;;4.40;;
44276;SDS011;29973;43.742;1.236;2024-03-02T11:42:50;15.25;;;3.97;;
44276;SDS011;29973;43.742;1.236;2024-03-02T11:45:16;11.35;;;4.53;;
44276;SDS011;29973;43.742;1.236;2024-03-02T11:47:49;9.05;;;3.70;;
44276;SDS011;29973;43.742;1.236;2024-03-02T11:50:28;13.23;;;3.92;;
44276;SDS011;29973;43.742;1.236;2024-03-02T11:53:02;15.07;;;3.70;;
44276;SDS011;29973;43.742;1.236;2024-03-02T11:55:36;8.43;;;3.67;;
44276;SDS011;29973;43.742;1.236;2024-03-02T11:58:06;8.98;;;3.80;;
44276;SDS011;29973;43.742;1.236;2024-03-02T12:00:32;9.13;;;3.42;;
44276;SDS011;29973;43.742;1.236;2024-03-02T12:03:02;6.85;;;3.15;;
44276;SDS011;29973;43.742;1.236;2024-03-02T12:05:28;12.35;;;3.90;;
44276;SDS011;29973;43.742;1.236;2024-03-02T12:07:59;6.95;;;3.72;;
44276;SDS011;29973;43.742;1.236;2024-03-02T12:10:29;11.80;;;3.40;;
44276;SDS011;29973;43.742;1.236;2024-03-02T12:13:05;8.15;;;3.67;;
44276;SDS011;29973;43.742;1.236;2024-03-02T12:15:33;9.35;;;2.97;;
44276;SDS011;29973;43.742;1.236;2024-03-02T12:18:00;10.10;;;3.80;;
44276;SDS011;29973;43.742;1.236;2024-03-02T12:20:30;8.55;;;2.88;;
44276;SDS011;29973;43.742;1.236;2024-03-02T12:23:01;9.55;;;3.25;;
44276;SDS011;29973;43.742;1.236;2024-03-02T12:25:29;8.88;;;3.05;;
44276;SDS011;29973;43.742;1.236;2024-03-02T12:27:57;11.63;;;3.00;;
44276;SDS011;29973;43.742;1.236;2024-03-02T12:30:26;8.27;;;3.17;;
44276;SDS011;29973;43.742;1.236;2024-03-02T12:32:54;7.07;;;2.70;;
44276;SDS011;29973;43.742;1.236;2024-03-02T12:35:21;6.80;;;3.03;;
44276;SDS011;29973;43.742;1.236;2024-03-02T12:37:52;6.50;;;3.13;;
44276;SDS011;29973;43.742;1.236;2024-03-02T12:40:18;11.77;;;2.78;;
44276;SDS011;29973;43.742;1.236;2024-03-02T12:42:48;8.05;;;2.72;;
44276;SDS011;29973;43.742;1.236;2024-03-02T12:45:14;6.07;;;2.67;;
44276;SDS011;29973;43.742;1.236;2024-03-02T12:47:41;6.25;;;3.22;;
44276;SDS011;29973;43.742;1.236;2024-03-02T12:50:07;9.32;;;3.10;;
44276;SDS011;29973;43.742;1.236;2024-03-02T12:52:35;10.40;;;2.53;;
44276;SDS011;29973;43.742;1.236;2024-03-02T12:55:02;7.25;;;2.58;;
44276;SDS011;29973;43.742;1.236;2024-03-02T12:57:32;8.35;;;2.72;;
44276;SDS011;29973;43.742;1.236;2024-03-02T13:00:02;9.93;;;2.83;;
44276;SDS011;29973;43.742;1.236;2024-03-02T13:02:34;11.18;;;3.25;;
44276;SDS011;29973;43.742;1.236;2024-03-02T13:05:01;7.43;;;2.70;;
44276;SDS011;29973;43.742;1.236;2024-03-02T13:07:27;6.40;;;2.65;;
44276;SDS011;29973;43.742;1.236;2024-03-02T13:09:54;6.75;;;2.83;;
44276;SDS011;29973;43.742;1.236;2024-03-02T13:12:21;7.60;;;3.30;;
44276;SDS011;29973;43.742;1.236;2024-03-02T13:14:49;9.50;;;3.03;;
44276;SDS011;29973;43.742;1.236;2024-03-02T13:17:19;7.68;;;3.03;;
44276;SDS011;29973;43.742;1.236;2024-03-02T13:20:06;11.45;;;3.15;;
44276;SDS011;29973;43.742;1.236;2024-03-02T13:22:33;6.13;;;2.80;;
44276;SDS011;29973;43.742;1.236;2024-03-02T13:24:58;8.05;;;3.80;;
44276;SDS011;29973;43.742;1.236;2024-03-02T13:27:26;10.02;;;3.10;;
44276;SDS011;29973;43.742;1.236;2024-03-02T13:29:52;10.02;;;3.83;;
44276;SDS011;29973;43.742;1.236;2024-03-02T13:32:17;12.13;;;3.97;;
44276;SDS011;29973;43.742;1.236;2024-03-02T13:37:14;10.25;;;3.90;;
44276;SDS011;29973;43.742;1.236;2024-03-02T13:39:40;10.10;;;3.42;;
44276;SDS011;29973;43.742;1.236;2024-03-02T13:42:10;11.05;;;3.67;;
44276;SDS011;29973;43.742;1.236;2024-03-02T13:44:38;11.00;;;3.42;;
44276;SDS011;29973;43.742;1.236;2024-03-02T13:47:04;8.93;;;3.15;;
44276;SDS011;29973;43.742;1.236;2024-03-02T13:49:30;8.10;;;3.25;;
44276;SDS011;29973;43.742;1.236;2024-03-02T13:52:01;8.35;;;2.90;;
44276;SDS011;29973;43.742;1.236;2024-03-02T13:54:30;13.93;;;2.90;;
44276;SDS011;29973;43.742;1.236;2024-03-02T13:56:56;14.20;;;3.20;;
44276;SDS011;29973;43.742;1.236;2024-03-02T13:59:23;8.75;;;3.67;;
44276;SDS011;29973;43.742;1.236;2024-03-02T14:01:50;5.35;;;2.72;;
44276;SDS011;29973;43.742;1.236;2024-03-02T14:04:16;6.57;;;3.10;;
44276;SDS011;29973;43.742;1.236;2024-03-02T14:06:42;12.40;;;3.75;;
44276;SDS011;29973;43.742;1.236;2024-03-02T14:09:09;6.93;;;3.03;;
44276;SDS011;29973;43.742;1.236;2024-03-02T14:11:34;12.60;;;4.03;;
44276;SDS011;29973;43.742;1.236;2024-03-02T14:14:00;13.07;;;4.20;;
44276;SDS011;29973;43.742;1.236;2024-03-02T14:16:27;7.18;;;3.47;;
44276;SDS011;29973;43.742;1.236;2024-03-02T14:18:53;7.50;;;3.13;;
44276;SDS011;29973;43.742;1.236;2024-03-02T14:21:19;6.93;;;2.97;;
44276;SDS011;29973;43.742;1.236;2024-03-02T14:23:44;13.00;;;3.95;;
44276;SDS011;29973;43.742;1.236;2024-03-02T14:26:10;9.18;;;3.38;;
44276;SDS011;29973;43.742;1.236;2024-03-02T14:28:35;11.82;;;3.30;;
44276;SDS011;29973;43.742;1.236;2024-03-02T14:31:01;9.18;;;3.63;;
44276;SDS011;29973;43.742;1.236;2024-03-02T14:33:27;12.93;;;4.00;;
44276;SDS011;29973;43.742;1.236;2024-03-02T14:35:53;8.43;;;3.10;;
44276;SDS011;29973;43.742;1.236;2024-03-02T14:38:19;8.95;;;3.28;;
44276;SDS011;29973;43.742;1.236;2024-03-02T14:40:45;8.45;;;3.60;;
44276;SDS011;29973;43.742;1.236;2024-03-02T14:43:11;7.53;;;3.13;;
44276;SDS011;29973;43.742;1.236;2024-03-02T14:45:36;7.32;;;2.90;;
44276;SDS011;29973;43.742;1.236;2024-03-02T14:48:02;8.80;;;3.03;;
44276;SDS011;29973;43.742;1.236;2024-03-02T14:50:29;7.88;;;2.80;;
44276;SDS011;29973;43.742;1.236;2024-03-02T14:52:55;7.10;;;3.05;;
44276;SDS011;29973;43.742;1.236;2024-03-02T14:55:24;9.05;;;3.40;;
44276;SDS011;29973;43.742;1.236;2024-03-02T14:57:50;7.95;;;2.92;;